Time;durP1;ratioP1;P1;durP2;ratioP2;P2;SDS_P1;SDS_P2;PMS_P1;PMS_P2;Temp;Humidity;BMP_temperature;BMP_pressure;BME280_temperature;BME280_humidity;BME280_pressure;Samples;Min_cycle;Max_cycle;Signal;HPM_P1;HPM_P2
2022/07/06 00:01:03;;;;;;;1.98;0.90;;;;;;;;;;10370495;28;20038;-44
2022/07/06 00:06:04;;;;;;;1.42;1.00;;;;;;;;;;10389928;28;20557;-44
2022/07/06 00:11:05;;;;;;;0.98;0.85;;;;;;;;;;10401106;28;20049;-44
2022/07/06 00:16:06;;;;;;;1.85;0.95;;;;;;;;;;10377690;28;20029;-45
2022/07/06 00:21:07;;;;;;;2.90;1.00;;;;;;;;;;10381353;28;20033;-45
2022/07/06 00:26:07;;;;;;;6.28;1.05;;;;;;;;;;10369203;28;20560;-45
2022/07/06 00:31:08;;;;;;;1.90;1.10;;;;;;;;;;10371888;28;20026;-45
2022/07/06 00:36:09;;;;;;;1.80;0.88;;;;;;;;;;10390451;28;20378;-44
2022/07/06 00:41:10;;;;;;;1.63;1.17;;;;;;;;;;10369586;28;20032;-45
2022/07/06 00:46:10;;;;;;;1.60;1.00;;;;;;;;;;10372887;28;20030;-45
2022/07/06 00:51:12;;;;;;;1.48;1.00;;;;;;;;;;10372114;28;20465;-45
2022/07/06 00:56:13;;;;;;;1.42;0.90;;;;;;;;;;10376349;28;20029;-44
2022/07/06 01:01:13;;;;;;;0.90;0.90;;;;;;;;;;10379074;28;20470;-45
2022/07/06 01:06:15;;;;;;;3.45;0.90;;;;;;;;;;10370292;28;20038;-45
2022/07/06 01:11:18;;;;;;;1.83;1.10;;;;;;;;;;10368251;28;20087;-48
2022/07/06 01:16:19;;;;;;;1.45;0.85;;;;;;;;;;10380706;28;20045;-45
2022/07/06 01:21:19;;;;;;;1.20;1.00;;;;;;;;;;10380098;28;20049;-46
2022/07/06 01:26:21;;;;;;;2.72;0.85;;;;;;;;;;10384168;28;20120;-47
2022/07/06 01:31:26;;;;;;;3.45;1.00;;;;;;;;;;10387700;28;20030;-46
2022/07/06 01:36:26;;;;;;;4.15;0.85;;;;;;;;;;10387616;28;20113;-45
2022/07/06 01:41:27;;;;;;;0.93;0.68;;;;;;;;;;10394917;28;20427;-44
2022/07/06 01:46:28;;;;;;;1.70;0.82;;;;;;;;;;10391225;28;20022;-45
2022/07/06 01:51:28;;;;;;;1.88;1.02;;;;;;;;;;10386278;28;20363;-44
2022/07/06 01:56:29;;;;;;;2.97;0.95;;;;;;;;;;10384630;28;20477;-45
2022/07/06 02:01:29;;;;;;;2.00;0.85;;;;;;;;;;10391926;28;20026;-45
2022/07/06 02:06:30;;;;;;;5.05;1.13;;;;;;;;;;10385487;28;20021;-45
2022/07/06 02:11:31;;;;;;;1.50;0.80;;;;;;;;;;10375619;28;20037;-46
2022/07/06 02:16:31;;;;;;;0.93;0.85;;;;;;;;;;10381567;28;20052;-46
2022/07/06 02:21:32;;;;;;;1.20;0.95;;;;;;;;;;10376290;28;20080;-45
2022/07/06 02:26:32;;;;;;;0.95;0.90;;;;;;;;;;10388922;28;20056;-45
2022/07/06 02:31:33;;;;;;;0.90;0.90;;;;;;;;;;10380463;28;20101;-45
2022/07/06 02:36:34;;;;;;;3.08;0.70;;;;;;;;;;10388836;28;20080;-45
2022/07/06 02:41:34;;;;;;;0.90;0.80;;;;;;;;;;10380533;28;20041;-44
2022/07/06 02:46:35;;;;;;;2.55;0.90;;;;;;;;;;10379060;28;20473;-44
2022/07/06 02:51:35;;;;;;;3.47;0.88;;;;;;;;;;10401095;28;20524;-44
2022/07/06 02:56:36;;;;;;;2.97;0.85;;;;;;;;;;10394194;28;20396;-44
2022/07/06 03:01:37;;;;;;;0.98;0.70;;;;;;;;;;10400726;28;20044;-45
2022/07/06 03:06:37;;;;;;;6.15;0.80;;;;;;;;;;10399235;28;20039;-44
2022/07/06 03:11:39;;;;;;;0.95;0.68;;;;;;;;;;10383668;28;20034;-48
2022/07/06 03:16:39;;;;;;;2.50;0.95;;;;;;;;;;10377418;28;20084;-45
2022/07/06 03:21:40;;;;;;;1.95;0.57;;;;;;;;;;10371168;28;20560;-47
2022/07/06 03:26:41;;;;;;;1.42;0.80;;;;;;;;;;10390214;28;20162;-45
2022/07/06 03:31:41;;;;;;;0.50;0.50;;;;;;;;;;10387119;28;20036;-46
2022/07/06 03:36:42;;;;;;;1.05;0.63;;;;;;;;;;10385764;28;20041;-45
2022/07/06 03:41:43;;;;;;;1.13;0.70;;;;;;;;;;10384421;28;20037;-45
2022/07/06 03:46:43;;;;;;;0.73;0.73;;;;;;;;;;10380945;28;20121;-47
2022/07/06 03:51:45;;;;;;;1.65;0.90;;;;;;;;;;10396924;28;20411;-45
2022/07/06 03:56:45;;;;;;;5.75;0.63;;;;;;;;;;10398310;28;20028;-46
2022/07/06 04:01:46;;;;;;;2.20;0.90;;;;;;;;;;10400375;28;20500;-45
2022/07/06 04:06:47;;;;;;;2.90;0.85;;;;;;;;;;10393579;28;20026;-45
2022/07/06 04:11:47;;;;;;;3.50;0.70;;;;;;;;;;10398918;28;20037;-45
2022/07/06 04:16:48;;;;;;;3.22;0.80;;;;;;;;;;10397515;28;20029;-44
2022/07/06 04:21:49;;;;;;;0.95;0.88;;;;;;;;;;10383502;28;20397;-44
2022/07/06 04:26:50;;;;;;;0.60;0.60;;;;;;;;;;10381556;28;20050;-44
2022/07/06 04:31:51;;;;;;;0.60;0.60;;;;;;;;;;10382289;28;20041;-45
2022/07/06 04:36:51;;;;;;;3.88;0.88;;;;;;;;;;10387648;28;20045;-44
2022/07/06 04:41:52;;;;;;;2.05;0.80;;;;;;;;;;10386425;28;20044;-44
2022/07/06 04:46:53;;;;;;;2.00;0.77;;;;;;;;;;10389266;28;20075;-45
2022/07/06 04:51:54;;;;;;;1.10;0.88;;;;;;;;;;10396342;28;20030;-46
2022/07/06 04:56:54;;;;;;;3.00;0.82;;;;;;;;;;10399364;28;20382;-45
2022/07/06 05:01:55;;;;;;;8.05;1.52;;;;;;;;;;10390996;28;20045;-45
2022/07/06 05:06:56;;;;;;;2.58;0.93;;;;;;;;;;10394069;28;20029;-45
2022/07/06 05:11:56;;;;;;;9.95;0.95;;;;;;;;;;10394520;28;20501;-51
2022/07/06 05:16:57;;;;;;;10.75;0.85;;;;;;;;;;10384874;28;20057;-45
2022/07/06 05:21:58;;;;;;;4.43;0.98;;;;;;;;;;10378700;28;20025;-50
2022/07/06 05:26:59;;;;;;;7.20;1.50;;;;;;;;;;10390846;28;20474;-49
2022/07/06 05:32:00;;;;;;;6.22;1.48;;;;;;;;;;10372115;28;20132;-49
2022/07/06 05:37:00;;;;;;;8.27;2.00;;;;;;;;;;10411443;23;20500;-54
2022/07/06 05:42:03;;;;;;;7.93;1.48;;;;;;;;;;10438894;28;20084;-51
2022/07/06 05:52:23;;;;;;;11.35;1.83;;;;;;;;;;10417492;28;20037;-51
2022/07/06 05:57:23;;;;;;;5.13;1.58;;;;;;;;;;10420772;28;20384;-53
2022/07/06 06:02:24;;;;;;;7.22;1.63;;;;;;;;;;10410043;28;20029;-56
2022/07/06 06:07:24;;;;;;;6.15;1.90;;;;;;;;;;10384265;28;20021;-56
2022/07/06 06:12:25;;;;;;;10.48;1.85;;;;;;;;;;10398520;28;20032;-53
2022/07/06 06:17:26;;;;;;;14.43;2.88;;;;;;;;;;10417982;28;20022;-56
2022/07/06 06:22:26;;;;;;;53.20;3.13;;;;;;;;;;10419340;28;20518;-55
2022/07/06 06:27:27;;;;;;;9.98;1.80;;;;;;;;;;10417971;28;20029;-55
2022/07/06 06:32:27;;;;;;;10.98;1.73;;;;;;;;;;10415132;28;20083;-56
2022/07/06 06:37:29;;;;;;;7.22;2.10;;;;;;;;;;10418391;28;20048;-56
2022/07/06 06:42:29;;;;;;;17.95;2.08;;;;;;;;;;10413563;28;20500;-57
2022/07/06 06:47:30;;;;;;;8.70;1.60;;;;;;;;;;10421824;28;20033;-56
2022/07/06 06:52:31;;;;;;;6.68;1.50;;;;;;;;;;10423349;28;20396;-56
2022/07/06 06:57:31;;;;;;;5.22;1.67;;;;;;;;;;10421066;28;20044;-56
2022/07/06 07:02:32;;;;;;;2.97;1.40;;;;;;;;;;10428361;28;20029;-57
2022/07/06 07:07:33;;;;;;;4.20;1.88;;;;;;;;;;10410048;28;20036;-57
2022/07/06 07:12:33;;;;;;;2.38;1.65;;;;;;;;;;10414378;28;20025;-57
2022/07/06 07:17:34;;;;;;;4.40;1.58;;;;;;;;;;10415654;28;20372;-52
2022/07/06 07:22:35;;;;;;;2.95;1.60;;;;;;;;;;10418829;28;20087;-55
2022/07/06 07:27:36;;;;;;;2.20;1.60;;;;;;;;;;10415145;28;20049;-52
2022/07/06 07:32:37;;;;;;;3.25;1.75;;;;;;;;;;10407100;28;20060;-52
2022/07/06 07:37:38;;;;;;;3.10;1.40;;;;;;;;;;10419938;28;20124;-57
2022/07/06 07:42:40;;;;;;;1.98;1.50;;;;;;;;;;10418518;28;20029;-50
2022/07/06 07:47:41;;;;;;;2.75;1.50;;;;;;;;;;10420283;28;20040;-52
2022/07/06 07:52:42;;;;;;;4.10;1.33;;;;;;;;;;10427389;28;20063;-53
2022/07/06 07:57:43;;;;;;;2.67;1.48;;;;;;;;;;10433868;28;20112;-54
2022/07/06 08:02:43;;;;;;;7.85;1.63;;;;;;;;;;10432863;28;20021;-56
2022/07/06 08:07:44;;;;;;;7.95;1.80;;;;;;;;;;10440402;28;20029;-57
2022/07/06 08:12:45;;;;;;;4.57;1.50;;;;;;;;;;10419999;28;20079;-56
2022/07/06 08:17:45;;;;;;;5.07;1.58;;;;;;;;;;10412567;28;20025;-55
2022/07/06 08:22:46;;;;;;;4.65;1.50;;;;;;;;;;10421703;28;20032;-51
2022/07/06 08:27:47;;;;;;;4.90;1.50;;;;;;;;;;10417622;28;20026;-57
2022/07/06 08:32:47;;;;;;;5.68;1.60;;;;;;;;;;10413534;28;20048;-58
2022/07/06 08:37:48;;;;;;;10.50;1.73;;;;;;;;;;10421989;28;20046;-58
2022/07/06 08:42:53;;;;;;;5.70;1.73;;;;;;;;;;10422830;28;20036;-55
2022/07/06 08:47:55;;;;;;;4.05;1.70;;;;;;;;;;10419188;28;20472;-52
2022/07/06 08:52:55;;;;;;;5.70;1.50;;;;;;;;;;10425920;28;20036;-58
2022/07/06 08:57:57;;;;;;;4.20;1.58;;;;;;;;;;10426936;28;20365;-58
2022/07/06 09:02:58;;;;;;;6.03;1.77;;;;;;;;;;10433322;28;20033;-58
2022/07/06 09:07:59;;;;;;;7.13;1.90;;;;;;;;;;10436836;28;20025;-58
2022/07/06 09:13:08;;;;;;;9.25;1.83;;;;;;;;;;10430237;28;20108;-57
2022/07/06 09:18:09;;;;;;;8.70;2.10;;;;;;;;;;10415732;28;20029;-54
2022/07/06 09:23:10;;;;;;;6.10;1.50;;;;;;;;;;10421743;28;20456;-57
2022/07/06 09:28:11;;;;;;;14.13;2.03;;;;;;;;;;10411451;28;20286;-58
2022/07/06 09:33:18;;;;;;;4.35;1.58;;;;;;;;;;10417795;28;20302;-59
2022/07/06 09:38:19;;;;;;;8.82;1.70;;;;;;;;;;10416454;28;20054;-59
2022/07/06 09:43:23;;;;;;;7.32;2.13;;;;;;;;;;10415179;28;20464;-59
2022/07/06 09:48:28;;;;;;;6.43;1.60;;;;;;;;;;10421998;28;20026;-58
2022/07/06 09:53:28;;;;;;;3.67;1.63;;;;;;;;;;10424508;28;20032;-59
2022/07/06 09:58:29;;;;;;;4.57;1.52;;;;;;;;;;10428510;28;20025;-57
2022/07/06 10:03:31;;;;;;;4.72;1.38;;;;;;;;;;10425772;28;20032;-54
2022/07/06 10:08:33;;;;;;;7.57;1.50;;;;;;;;;;10436798;28;20029;-57
2022/07/06 10:13:36;;;;;;;7.53;1.60;;;;;;;;;;10428589;28;20025;-54
2022/07/06 10:18:37;;;;;;;3.25;1.25;;;;;;;;;;10412400;28;20500;-55
2022/07/06 10:23:39;;;;;;;5.78;1.50;;;;;;;;;;10417457;28;20025;-55
2022/07/06 10:28:42;;;;;;;6.40;1.50;;;;;;;;;;10410542;28;20090;-54
2022/07/06 10:33:43;;;;;;;2.33;1.23;;;;;;;;;;10412110;28;20030;-58
2022/07/06 10:38:49;;;;;;;2.38;1.38;;;;;;;;;;10403033;28;20046;-58
2022/07/06 10:43:51;;;;;;;1.40;1.20;;;;;;;;;;10415470;28;20029;-56
2022/07/06 10:48:51;;;;;;;2.50;1.30;;;;;;;;;;10418133;28;20111;-58
2022/07/06 10:54:01;;;;;;;2.17;1.10;;;;;;;;;;10424330;28;20520;-57
2022/07/06 10:59:16;;;;;;;3.13;1.23;;;;;;;;;;10423520;28;20037;-58
2022/07/06 11:04:17;;;;;;;6.43;1.42;;;;;;;;;;10422906;28;20075;-54
2022/07/06 11:09:18;;;;;;;2.47;1.10;;;;;;;;;;10401454;28;20033;-54
2022/07/06 11:14:21;;;;;;;2.30;1.15;;;;;;;;;;10408855;28;20030;-56
2022/07/06 11:19:23;;;;;;;2.47;1.50;;;;;;;;;;10423587;28;20484;-56
2022/07/06 11:24:32;;;;;;;1.10;1.00;;;;;;;;;;10416377;28;20109;-56
2022/07/06 11:29:34;;;;;;;4.30;1.20;;;;;;;;;;10406393;28;20164;-59
2022/07/06 11:34:38;;;;;;;2.42;1.15;;;;;;;;;;10414324;28;20507;-56
2022/07/06 11:39:42;;;;;;;2.53;1.05;;;;;;;;;;10416688;28;20129;-57
2022/07/06 11:44:44;;;;;;;2.80;1.10;;;;;;;;;;10416680;28;20103;-54
2022/07/06 11:49:50;;;;;;;4.43;1.60;;;;;;;;;;10419374;28;20105;-58
2022/07/06 11:54:59;;;;;;;6.72;1.40;;;;;;;;;;10420114;28;20420;-58
2022/07/06 11:59:59;;;;;;;3.67;1.55;;;;;;;;;;10420212;28;20099;-55
2022/07/06 12:05:00;;;;;;;3.13;1.63;;;;;;;;;;10412430;28;20442;-60
2022/07/06 12:10:01;;;;;;;16.75;1.60;;;;;;;;;;10419772;28;20033;-59
2022/07/06 12:15:03;;;;;;;6.78;1.88;;;;;;;;;;10403863;28;20029;-57
2022/07/06 12:20:04;;;;;;;6.82;1.65;;;;;;;;;;10412893;28;20388;-52
2022/07/06 12:25:06;;;;;;;10.43;1.67;;;;;;;;;;10412636;28;20041;-60
2022/07/06 12:30:11;;;;;;;7.10;1.45;;;;;;;;;;10419236;28;20032;-60
2022/07/06 12:35:12;;;;;;;7.80;1.85;;;;;;;;;;10428458;28;20044;-54
2022/07/06 12:40:14;;;;;;;11.55;1.70;;;;;;;;;;10404153;28;20060;-55
2022/07/06 12:45:15;;;;;;;7.53;1.50;;;;;;;;;;10417071;28;20051;-55
2022/07/06 12:50:16;;;;;;;9.95;2.05;;;;;;;;;;10424527;28;20040;-57
2022/07/06 12:55:25;;;;;;;3.20;1.33;;;;;;;;;;10399138;28;20021;-57
2022/07/06 13:00:26;;;;;;;6.68;1.73;;;;;;;;;;10391215;28;20061;-58
2022/07/06 13:05:27;;;;;;;2.65;1.10;;;;;;;;;;10408890;28;20569;-53
2022/07/06 13:10:30;;;;;;;4.30;1.42;;;;;;;;;;10413754;28;20026;-55
2022/07/06 13:15:31;;;;;;;4.85;1.50;;;;;;;;;;10405584;28;20481;-54
2022/07/06 13:20:31;;;;;;;5.68;1.05;;;;;;;;;;10422481;28;20028;-57
2022/07/06 13:25:32;;;;;;;3.28;1.20;;;;;;;;;;10397149;28;20033;-57
2022/07/06 13:30:32;;;;;;;4.32;1.40;;;;;;;;;;10409683;28;20033;-57
2022/07/06 13:35:33;;;;;;;2.08;1.10;;;;;;;;;;10406883;28;20385;-54
2022/07/06 13:40:35;;;;;;;4.40;1.40;;;;;;;;;;10405615;28;20041;-58
2022/07/06 13:45:36;;;;;;;5.75;1.23;;;;;;;;;;10422263;28;20018;-58
2022/07/06 13:50:37;;;;;;;3.33;1.10;;;;;;;;;;10425077;28;20029;-59
2022/07/06 13:55:37;;;;;;;4.30;1.13;;;;;;;;;;10412757;28;20064;-58
2022/07/06 14:00:38;;;;;;;2.67;1.08;;;;;;;;;;10402911;28;20385;-57
2022/07/06 14:05:39;;;;;;;1.67;1.00;;;;;;;;;;10408472;28;20488;-58
2022/07/06 14:10:39;;;;;;;6.40;1.10;;;;;;;;;;10417170;28;20479;-57
2022/07/06 14:15:40;;;;;;;4.82;1.17;;;;;;;;;;10411236;28;20396;-58
2022/07/06 14:20:41;;;;;;;2.08;1.00;;;;;;;;;;10419017;28;20028;-59
2022/07/06 14:25:43;;;;;;;1.30;1.20;;;;;;;;;;10403688;28;20064;-59
2022/07/06 14:30:45;;;;;;;1.50;1.05;;;;;;;;;;10403953;28;20112;-59
2022/07/06 14:35:48;;;;;;;2.05;1.20;;;;;;;;;;10417054;28;20032;-58
2022/07/06 14:40:49;;;;;;;4.03;1.02;;;;;;;;;;10418945;28;20037;-59
2022/07/06 14:45:50;;;;;;;1.77;0.95;;;;;;;;;;10414103;28;20597;-59
2022/07/06 14:50:51;;;;;;;2.92;1.20;;;;;;;;;;10393781;28;20308;-59
2022/07/06 14:55:51;;;;;;;6.30;1.23;;;;;;;;;;10412524;28;20203;-59
2022/07/06 15:00:52;;;;;;;2.47;1.00;;;;;;;;;;10424959;28;20025;-58
2022/07/06 15:05:54;;;;;;;2.35;1.00;;;;;;;;;;10419925;28;20041;-59
2022/07/06 15:10:55;;;;;;;2.88;1.23;;;;;;;;;;10417187;28;20553;-55
2022/07/06 15:15:55;;;;;;;2.15;1.02;;;;;;;;;;10406215;28;20067;-57
2022/07/06 15:20:57;;;;;;;3.28;1.23;;;;;;;;;;10410308;28;20026;-51
2022/07/06 15:25:57;;;;;;;2.58;1.30;;;;;;;;;;10419397;28;20044;-51
2022/07/06 15:30:58;;;;;;;3.50;1.05;;;;;;;;;;10405357;28;20371;-53
2022/07/06 15:35:59;;;;;;;1.88;0.82;;;;;;;;;;10386121;28;20030;-53
2022/07/06 15:41:03;;;;;;;1.30;0.98;;;;;;;;;;10412159;28;20037;-53
2022/07/06 15:46:04;;;;;;;2.85;1.38;;;;;;;;;;10417365;28;20037;-53
2022/07/06 15:51:05;;;;;;;2.13;1.00;;;;;;;;;;10391396;28;20022;-54
2022/07/06 15:56:06;;;;;;;3.33;0.88;;;;;;;;;;10402049;28;20179;-53
2022/07/06 16:01:07;;;;;;;2.08;1.45;;;;;;;;;;10422054;28;20432;-51
2022/07/06 16:06:10;;;;;;;1.85;0.98;;;;;;;;;;10440028;28;20404;-53
2022/07/06 16:11:14;;;;;;;1.75;0.93;;;;;;;;;;10418001;28;20034;-52
2022/07/06 16:16:15;;;;;;;3.20;1.20;;;;;;;;;;10409078;28;20021;-53
2022/07/06 16:21:16;;;;;;;3.25;0.90;;;;;;;;;;10418417;28;20076;-54
2022/07/06 16:26:17;;;;;;;4.85;1.05;;;;;;;;;;10416172;28;20033;-52
2022/07/06 16:31:17;;;;;;;5.45;0.98;;;;;;;;;;10421169;28;20029;-53
2022/07/06 16:36:18;;;;;;;4.00;0.90;;;;;;;;;;10410440;28;20022;-52
2022/07/06 16:41:19;;;;;;;2.38;1.00;;;;;;;;;;10411665;28;20026;-56
2022/07/06 16:46:19;;;;;;;6.63;1.08;;;;;;;;;;10417428;28;20025;-56
2022/07/06 16:51:20;;;;;;;4.10;1.10;;;;;;;;;;10425990;28;20116;-50
2022/07/06 16:56:21;;;;;;;4.35;0.90;;;;;;;;;;10427624;28;20049;-53
2022/07/06 17:01:21;;;;;;;2.42;1.08;;;;;;;;;;10413442;28;20477;-53
2022/07/06 17:06:23;;;;;;;5.97;1.10;;;;;;;;;;10426510;28;20033;-50
2022/07/06 17:11:24;;;;;;;2.35;0.82;;;;;;;;;;10421288;28;20389;-53
2022/07/06 17:16:24;;;;;;;5.72;0.95;;;;;;;;;;10425110;28;20029;-51
2022/07/06 17:21:25;;;;;;;0.90;0.90;;;;;;;;;;10411088;28;20368;-51
2022/07/06 17:26:26;;;;;;;3.30;0.93;;;;;;;;;;10412916;28;20056;-49
2022/07/06 17:31:27;;;;;;;1.77;0.70;;;;;;;;;;10414057;28;20033;-52
2022/07/06 17:36:28;;;;;;;0.95;0.88;;;;;;;;;;10413776;28;20050;-50
2022/07/06 17:41:29;;;;;;;1.25;0.80;;;;;;;;;;10402090;28;20022;-53
2022/07/06 17:46:30;;;;;;;1.23;0.80;;;;;;;;;;10422771;28;20029;-53
2022/07/06 17:51:31;;;;;;;1.25;0.80;;;;;;;;;;10409694;28;20484;-50
2022/07/06 17:56:32;;;;;;;2.08;1.10;;;;;;;;;;10411188;28;20037;-51
2022/07/06 18:01:32;;;;;;;2.83;1.10;;;;;;;;;;10412850;28;20025;-51
2022/07/06 18:06:33;;;;;;;2.15;1.00;;;;;;;;;;10419326;28;20088;-52
2022/07/06 18:11:34;;;;;;;4.13;1.05;;;;;;;;;;10409664;28;20107;-50
2022/07/06 18:16:35;;;;;;;3.53;0.90;;;;;;;;;;10408789;28;20153;-48
2022/07/06 18:21:37;;;;;;;2.08;1.00;;;;;;;;;;10415396;28;20029;-51
2022/07/06 18:26:38;;;;;;;2.53;1.00;;;;;;;;;;10401467;28;20646;-50
2022/07/06 18:31:40;;;;;;;2.10;0.93;;;;;;;;;;10408860;28;20164;-50
2022/07/06 18:36:40;;;;;;;6.07;1.30;;;;;;;;;;10415085;28;20151;-49
2022/07/06 18:41:41;;;;;;;3.30;1.02;;;;;;;;;;10410634;28;20540;-49
2022/07/06 18:46:42;;;;;;;1.70;1.10;;;;;;;;;;10414811;28;20033;-51
2022/07/06 18:51:42;;;;;;;2.63;1.27;;;;;;;;;;10413104;28;20080;-49
2022/07/06 18:56:44;;;;;;;2.80;1.10;;;;;;;;;;10432379;28;20060;-50
2022/07/06 19:01:45;;;;;;;3.13;1.20;;;;;;;;;;10413717;28;20036;-51
2022/07/06 19:06:46;;;;;;;2.65;1.00;;;;;;;;;;10399096;28;20040;-56
2022/07/06 19:11:46;;;;;;;5.55;1.27;;;;;;;;;;10404411;28;20036;-52
2022/07/06 19:16:47;;;;;;;7.32;1.27;;;;;;;;;;10403501;28;20102;-50
2022/07/06 19:21:48;;;;;;;5.75;1.23;;;;;;;;;;10407455;28;20465;-46
2022/07/06 19:26:49;;;;;;;3.10;1.20;;;;;;;;;;10418887;28;20057;-50
2022/07/06 19:31:49;;;;;;;7.43;1.42;;;;;;;;;;10412356;28;20033;-53
2022/07/06 19:36:50;;;;;;;3.67;1.27;;;;;;;;;;10418658;28;20099;-53
2022/07/06 19:41:51;;;;;;;3.70;1.48;;;;;;;;;;10422144;28;20029;-52
2022/07/06 19:46:51;;;;;;;4.20;1.40;;;;;;;;;;10410793;28;20476;-50
2022/07/06 19:51:52;;;;;;;6.32;1.35;;;;;;;;;;10427229;28;20357;-50
2022/07/06 19:56:52;;;;;;;4.45;1.00;;;;;;;;;;10424306;28;20044;-50
2022/07/06 20:01:53;;;;;;;6.93;1.10;;;;;;;;;;10426806;28;20041;-48
2022/07/06 20:06:53;;;;;;;3.97;1.35;;;;;;;;;;10417800;28;20044;-52
2022/07/06 20:11:54;;;;;;;8.45;1.30;;;;;;;;;;10413790;28;20041;-53
2022/07/06 20:16:55;;;;;;;3.35;1.60;;;;;;;;;;10408151;28;20512;-53
2022/07/06 20:21:55;;;;;;;4.95;1.67;;;;;;;;;;10419834;28;20499;-48
2022/07/06 20:26:57;;;;;;;10.00;1.58;;;;;;;;;;10419776;28;20033;-50
2022/07/06 20:31:57;;;;;;;9.68;1.40;;;;;;;;;;10395432;28;20116;-48
2022/07/06 20:36:58;;;;;;;4.18;1.30;;;;;;;;;;10398740;28;20049;-48
2022/07/06 20:41:59;;;;;;;3.00;1.60;;;;;;;;;;10403373;28;20036;-47
2022/07/06 20:46:59;;;;;;;4.47;1.40;;;;;;;;;;10391525;28;20033;-49
2022/07/06 20:52:00;;;;;;;3.78;1.65;;;;;;;;;;10398699;28;20535;-53
2022/07/06 20:57:01;;;;;;;2.42;1.23;;;;;;;;;;10399395;28;20143;-50
2022/07/06 21:02:06;;;;;;;4.15;1.55;;;;;;;;;;10414423;28;20033;-49
2022/07/06 21:07:06;;;;;;;5.53;1.63;;;;;;;;;;10417681;28;20110;-53
2022/07/06 21:12:08;;;;;;;4.82;1.58;;;;;;;;;;10419048;28;20151;-50
2022/07/06 21:17:09;;;;;;;4.68;1.55;;;;;;;;;;10413221;28;20100;-49
2022/07/06 21:22:10;;;;;;;2.38;1.30;;;;;;;;;;10420959;28;20119;-49
2022/07/06 21:27:11;;;;;;;2.95;1.50;;;;;;;;;;10403131;28;20036;-52
2022/07/06 21:32:12;;;;;;;5.72;1.70;;;;;;;;;;10403473;28;20022;-52
2022/07/06 21:37:13;;;;;;;3.00;1.58;;;;;;;;;;10385603;28;20104;-53
2022/07/06 21:42:13;;;;;;;2.67;1.70;;;;;;;;;;10415363;28;20472;-49
2022/07/06 21:47:14;;;;;;;2.55;1.52;;;;;;;;;;10420135;28;20392;-51
2022/07/06 21:52:15;;;;;;;3.80;1.35;;;;;;;;;;10408894;28;20053;-50
2022/07/06 21:57:15;;;;;;;3.30;1.52;;;;;;;;;;10410423;28;20083;-52
2022/07/06 22:02:16;;;;;;;2.05;1.30;;;;;;;;;;10412630;28;20030;-52
2022/07/06 22:07:17;;;;;;;3.40;1.58;;;;;;;;;;10416215;28;20034;-56
2022/07/06 22:12:17;;;;;;;4.10;1.55;;;;;;;;;;10433101;28;20033;-53
2022/07/06 22:17:18;;;;;;;3.72;1.55;;;;;;;;;;10405973;28;20101;-49
2022/07/06 22:22:19;;;;;;;2.33;1.48;;;;;;;;;;10412004;28;20276;-58
2022/07/06 22:27:20;;;;;;;10.15;1.42;;;;;;;;;;10412855;28;20037;-58
2022/07/06 22:32:20;;;;;;;3.40;1.58;;;;;;;;;;10413831;28;20038;-55
2022/07/06 22:37:23;;;;;;;4.57;1.63;;;;;;;;;;10404827;28;20049;-55
2022/07/06 22:42:23;;;;;;;2.70;1.60;;;;;;;;;;10412063;28;20034;-55
2022/07/06 22:47:24;;;;;;;6.00;1.55;;;;;;;;;;10413892;28;20025;-58
2022/07/06 22:52:25;;;;;;;4.80;1.45;;;;;;;;;;10417125;28;20135;-58
2022/07/06 22:57:26;;;;;;;8.82;1.45;;;;;;;;;;10422505;28;20079;-56
2022/07/06 23:02:27;;;;;;;5.75;1.20;;;;;;;;;;10414857;28;20033;-57
2022/07/06 23:07:28;;;;;;;2.92;1.30;;;;;;;;;;10423833;28;20059;-55
2022/07/06 23:12:28;;;;;;;2.53;1.33;;;;;;;;;;10426903;28;20556;-60
2022/07/06 23:17:29;;;;;;;4.13;1.50;;;;;;;;;;10431699;28;20389;-56
2022/07/06 23:22:29;;;;;;;4.13;1.08;;;;;;;;;;10413713;28;20214;-58
2022/07/06 23:27:30;;;;;;;2.40;1.40;;;;;;;;;;10409016;28;20491;-55
2022/07/06 23:32:31;;;;;;;3.40;1.25;;;;;;;;;;10406933;28;20036;-56
2022/07/06 23:37:32;;;;;;;1.25;1.15;;;;;;;;;;10400050;28;20049;-55
2022/07/06 23:42:32;;;;;;;1.70;1.10;;;;;;;;;;10413625;28;20033;-56
2022/07/06 23:47:34;;;;;;;1.27;1.10;;;;;;;;;;10414416;28;20039;-58
2022/07/06 23:52:35;;;;;;;3.80;1.40;;;;;;;;;;10413959;28;20033;-56
2022/07/06 23:57:35;;;;;;;2.95;1.13;;;;;;;;;;10408592;28;20030;-54
